Brownsville, Ohio
Current Conditions -  °F | °C
As of 9:54 PM on Sunday 23 Nov 2014 (Local Time) from KVTA Reporting Station
Light Rain Light Rain  
Wind Chill: 54°   Ceiling: 4600
Heat Index: 54°   Visibility: 8mi
Dew Point: 51°   Wind: 13mph
Humidity: 90%   Direction: 130°SE
Pressure: 29.43"   Gusts: 24mph
Location:  39.94°N, 82.25°W
Report Text: KVTA 240254Z AUTO 13011G21KT 8SM -RA SCT017 BKN046 OVC090 12/11 A2943 RMK AO2 PRESFR SLP964 P0014 60022 T01220106 58058
Loading
Personal Weather Stations






























Interactive Weather Map New forecast layout! Learn more

10-Day Weather Forecast

Advertisements
Track Severe Weather on mobile